Terminal Aerodrome Forecast
Issued by NWS

Home | Current Version | Previous Version | Text Only | Print | Product List | Glossary On
Versions: 1 2 3 4 5 6 7 8 9 10 11 12 13 14 15 16
640
FTUS46 KSTO 212337
TAFSAC
TAF
KSAC 212337Z 2200/2224 15014G24KT P6SM VCSH BKN050
     FM220300 15020G25KT P6SM -RA OVC025
     FM220600 15025G35KT P6SM RA OVC025
     FM221000 15035G45KT P6SM RA OVC015
     FM221500 16022G32KT P6SM -RA OVC015
     FM222100 17010G15KT 4SM BR VCSH OVC015=

USA.gov is the U.S. government's official web portal to all federal, state and local government web resources and services.